createdAt,value
2019-03-22T00:00:34.987Z,1028.08
2019-03-22T00:01:35.033Z,1028.06
2019-03-22T00:02:35.097Z,1028.04
2019-03-22T00:03:35.153Z,1028.03
2019-03-22T00:04:35.241Z,1028.04
2019-03-22T00:05:35.285Z,1028.00
2019-03-22T00:06:35.367Z,1028.02
2019-03-22T00:07:35.401Z,1028.03
2019-03-22T00:08:35.462Z,1028.04
2019-03-22T00:09:35.530Z,1028.03
2019-03-22T00:10:35.595Z,1028.04
2019-03-22T00:11:35.646Z,1028.03
2019-03-22T00:12:35.706Z,1028.10
2019-03-22T00:13:35.771Z,1028.04
2019-03-22T00:14:36.984Z,1028.07
2019-03-22T00:15:35.901Z,1028.09
2019-03-22T00:16:35.958Z,1028.08
2019-03-22T00:17:36.016Z,1028.08
2019-03-22T00:18:36.079Z,1028.02
2019-03-22T00:19:36.235Z,1028.04
2019-03-22T00:20:36.199Z,1028.05
2019-03-22T00:21:36.262Z,1028.05
2019-03-22T00:22:36.323Z,1028.04
2019-03-22T00:23:36.382Z,1028.02
2019-03-22T00:24:36.451Z,1028.08
2019-03-22T00:25:36.511Z,1028.06
2019-03-22T00:26:36.567Z,1028.05
2019-03-22T00:27:36.642Z,1028.02
2019-03-22T00:28:36.721Z,1028.04
2019-03-22T00:29:36.759Z,1028.04
2019-03-22T00:30:36.819Z,1028.03
2019-03-22T00:31:36.875Z,1028.04
2019-03-22T00:32:36.938Z,1028.03
2019-03-22T00:33:36.995Z,1028.06
2019-03-22T00:34:37.064Z,1028.02
2019-03-22T00:35:37.128Z,1028.02
2019-03-22T00:36:37.180Z,1028.04
2019-03-22T00:37:37.240Z,1028.01
2019-03-22T00:38:37.306Z,1028.02
2019-03-22T00:39:37.374Z,1027.98
2019-03-22T00:40:37.431Z,1028.00
2019-03-22T00:41:37.488Z,1027.97
2019-03-22T00:42:37.548Z,1027.96
2019-03-22T00:43:37.608Z,1027.95
2019-03-22T00:44:37.676Z,1027.94
2019-03-22T00:45:37.736Z,1027.92
2019-03-22T00:46:37.792Z,1027.91
2019-03-22T00:47:37.852Z,1027.92
2019-03-22T00:48:37.917Z,1027.90
2019-03-22T00:49:37.984Z,1027.91
2019-03-22T00:50:38.044Z,1027.89
2019-03-22T00:51:38.100Z,1027.90
2019-03-22T00:52:38.160Z,1027.91
2019-03-22T00:53:38.223Z,1027.89
2019-03-22T00:54:38.280Z,1027.96
2019-03-22T00:55:38.360Z,1027.93
2019-03-22T00:56:38.404Z,1027.91
2019-03-22T00:57:38.469Z,1027.86
2019-03-22T00:58:38.528Z,1027.88
2019-03-22T00:59:38.589Z,1027.88
2019-03-22T01:00:38.657Z,1027.88
2019-03-22T01:01:38.717Z,1027.87
2019-03-22T01:02:38.773Z,1027.89
2019-03-22T01:03:38.833Z,1027.91
2019-03-22T01:04:38.893Z,1027.91
2019-03-22T01:05:38.964Z,1027.90
2019-03-22T01:06:39.022Z,1027.89
2019-03-22T01:07:39.079Z,1027.92
2019-03-22T01:08:39.141Z,1027.87
2019-03-22T01:09:39.196Z,1027.86
2019-03-22T01:10:39.361Z,1027.84
2019-03-22T01:11:39.321Z,1027.85
2019-03-22T01:12:39.381Z,1027.84
2019-03-22T01:13:39.445Z,1027.83
2019-03-22T01:14:39.509Z,1027.82
2019-03-22T01:15:39.573Z,1027.87
2019-03-22T01:16:39.634Z,1027.87
2019-03-22T01:17:39.690Z,1027.85
2019-03-22T01:18:39.750Z,1027.86
2019-03-22T01:19:39.810Z,1027.90
2019-03-22T01:20:39.878Z,1027.86
2019-03-22T01:21:39.939Z,1027.88
2019-03-22T01:22:39.994Z,1027.84
2019-03-22T01:23:40.054Z,1027.86
2019-03-22T01:24:40.118Z,1027.83
2019-03-22T01:25:40.262Z,1027.86
2019-03-22T01:26:40.237Z,1027.81
2019-03-22T01:27:41.429Z,1027.83
2019-03-22T01:28:40.358Z,1027.83
2019-03-22T01:29:40.418Z,1027.84
2019-03-22T01:30:40.490Z,1027.80
2019-03-22T01:31:40.550Z,1027.83
2019-03-22T01:32:40.602Z,1027.81
2019-03-22T01:33:40.662Z,1027.82
2019-03-22T01:34:40.726Z,1027.78
2019-03-22T01:35:40.794Z,1027.78
2019-03-22T01:36:40.855Z,1027.75
2019-03-22T01:37:40.955Z,1027.77
2019-03-22T01:38:40.966Z,1027.76
2019-03-22T01:39:41.033Z,1027.81
2019-03-22T01:40:41.275Z,1027.80
2019-03-22T01:41:41.155Z,1027.79
2019-03-22T01:42:41.211Z,1027.78
2019-03-22T01:43:41.274Z,1027.78
2019-03-22T01:44:41.343Z,1027.81
2019-03-22T01:45:41.403Z,1027.80
2019-03-22T01:46:41.467Z,1027.80
2019-03-22T01:47:41.515Z,1027.81
2019-03-22T01:48:41.575Z,1027.82
2019-03-22T01:49:41.639Z,1027.84
2019-03-22T01:50:41.707Z,1027.83
2019-03-22T01:51:41.767Z,1027.85
2019-03-22T01:52:41.819Z,1027.85
2019-03-22T01:53:41.883Z,1027.87
2019-03-22T01:54:41.943Z,1027.87
2019-03-22T01:55:42.015Z,1027.92
2019-03-22T01:56:42.071Z,1027.90
2019-03-22T01:57:52.405Z,1027.87
2019-03-22T01:58:42.187Z,1027.88
2019-03-22T01:59:42.248Z,1027.81
2019-03-22T02:00:42.307Z,1027.85
2019-03-22T02:01:42.408Z,1027.81
2019-03-22T02:02:42.495Z,1027.79
2019-03-22T02:03:42.492Z,1027.78
2019-03-22T02:04:42.551Z,1027.78
2019-03-22T02:05:42.616Z,1027.77
2019-03-22T02:06:42.683Z,1027.77
2019-03-22T02:07:42.754Z,1027.80
2019-03-22T02:08:42.792Z,1027.77
2019-03-22T02:09:42.856Z,1027.80
2019-03-22T02:10:42.916Z,1027.78
2019-03-22T02:11:42.988Z,1027.81
2019-03-22T02:12:43.047Z,1027.77
2019-03-22T02:13:43.099Z,1027.81
2019-03-22T02:14:43.160Z,1027.78
2019-03-22T02:15:43.225Z,1027.76
2019-03-22T02:16:43.292Z,1027.74
2019-03-22T02:17:43.341Z,1027.72
2019-03-22T02:18:43.404Z,1027.71
2019-03-22T02:19:43.461Z,1027.70
2019-03-22T02:20:43.520Z,1027.69
2019-03-22T02:21:43.589Z,1027.66
2019-03-22T02:22:43.655Z,1027.70
2019-03-22T02:23:43.705Z,1027.69
2019-03-22T02:24:43.765Z,1027.69
2019-03-22T02:25:43.825Z,1027.66
2019-03-22T02:26:43.895Z,1027.65
2019-03-22T02:27:43.963Z,1027.65
2019-03-22T02:28:44.009Z,1027.66
2019-03-22T02:29:44.524Z,1027.71
2019-03-22T02:30:44.145Z,1027.73
2019-03-22T02:31:44.217Z,1027.71
2019-03-22T02:32:44.257Z,1027.75
2019-03-22T02:33:44.309Z,1027.75
2019-03-22T02:34:44.374Z,1027.71
2019-03-22T02:35:44.438Z,1027.68
2019-03-22T02:36:44.498Z,1027.68
2019-03-22T02:37:44.569Z,1027.64
2019-03-22T02:38:44.614Z,1027.60
2019-03-22T02:39:44.991Z,1027.62
2019-03-22T02:40:44.868Z,1027.57
2019-03-22T02:41:44.807Z,1027.56
2019-03-22T02:42:44.867Z,1027.57
2019-03-22T02:43:44.919Z,1027.57
2019-03-22T02:44:44.982Z,1027.57
2019-03-22T02:45:45.038Z,1027.59
2019-03-22T02:46:45.191Z,1027.58
2019-03-22T02:47:45.163Z,1027.58
2019-03-22T02:48:45.219Z,1027.53
2019-03-22T02:49:45.283Z,1027.56
2019-03-22T02:50:45.342Z,1027.57
2019-03-22T02:51:45.411Z,1027.55
2019-03-22T02:52:45.477Z,1027.55
2019-03-22T02:53:45.522Z,1027.52
2019-03-22T02:54:45.584Z,1027.52
2019-03-22T02:55:45.678Z,1027.52
2019-03-22T02:56:45.718Z,1027.47
2019-03-22T02:57:45.838Z,1027.44
2019-03-22T02:58:45.827Z,1027.46
2019-03-22T02:59:45.892Z,1027.50
2019-03-22T03:00:45.952Z,1027.48
2019-03-22T03:01:46.015Z,1027.51
2019-03-22T03:02:46.082Z,1027.49
2019-03-22T03:03:46.133Z,1027.45
2019-03-22T03:04:46.194Z,1027.47
2019-03-22T03:05:46.256Z,1027.50
2019-03-22T03:06:46.311Z,1027.45
2019-03-22T03:07:46.464Z,1027.42
2019-03-22T03:08:46.431Z,1027.39
2019-03-22T03:09:46.493Z,1027.42
2019-03-22T03:10:46.556Z,1027.39
2019-03-22T03:11:46.616Z,1027.41
2019-03-22T03:12:46.690Z,1027.38
2019-03-22T03:13:46.744Z,1027.36
2019-03-22T03:14:46.795Z,1027.39
2019-03-22T03:15:46.856Z,1027.38
2019-03-22T03:16:46.917Z,1027.39
2019-03-22T03:17:46.987Z,1027.38
2019-03-22T03:18:47.045Z,1027.38
2019-03-22T03:19:47.101Z,1027.37
2019-03-22T03:20:47.160Z,1027.35
2019-03-22T03:21:47.223Z,1027.39
2019-03-22T03:22:47.286Z,1027.37
2019-03-22T03:23:47.368Z,1027.36
2019-03-22T03:24:47.409Z,1027.38
2019-03-22T03:25:47.460Z,1027.36
2019-03-22T03:26:47.520Z,1027.35
2019-03-22T03:27:47.586Z,1027.34
2019-03-22T03:28:47.661Z,1027.31
2019-03-22T03:29:47.714Z,1027.35
2019-03-22T03:30:47.786Z,1027.30
2019-03-22T03:31:47.825Z,1027.32
2019-03-22T03:32:47.885Z,1027.31
2019-03-22T03:33:47.953Z,1027.33
2019-03-22T03:34:48.021Z,1027.32
2019-03-22T03:35:48.066Z,1027.34
2019-03-22T03:36:48.126Z,1027.38
2019-03-22T03:37:48.186Z,1027.35
2019-03-22T03:38:48.344Z,1027.42
2019-03-22T03:39:48.314Z,1027.40
2019-03-22T03:40:48.369Z,1027.39
2019-03-22T03:41:48.430Z,1027.39
2019-03-22T03:42:48.492Z,1027.39
2019-03-22T03:43:48.559Z,1027.39
2019-03-22T03:44:48.618Z,1027.37
2019-03-22T03:45:48.670Z,1027.44
2019-03-22T03:46:48.825Z,1027.42
2019-03-22T03:47:48.790Z,1027.41
2019-03-22T03:48:48.858Z,1027.41
2019-03-22T03:49:48.918Z,1027.43
2019-03-22T03:50:48.983Z,1027.41
2019-03-22T03:51:49.035Z,1027.36
2019-03-22T03:52:49.095Z,1027.32
2019-03-22T03:53:49.174Z,1027.35
2019-03-22T03:54:49.214Z,1027.36
2019-03-22T03:55:49.275Z,1027.31
2019-03-22T03:56:49.339Z,1027.28
2019-03-22T03:57:49.394Z,1027.31
2019-03-22T03:58:52.762Z,1027.23
2019-03-22T03:59:49.522Z,1027.24
2019-03-22T04:00:49.583Z,1027.22
2019-03-22T04:01:49.633Z,1027.25
2019-03-22T04:02:49.708Z,1027.24
2019-03-22T04:03:49.774Z,1027.26
2019-03-22T04:04:49.825Z,1027.30
2019-03-22T04:05:49.882Z,1027.32
2019-03-22T04:06:49.945Z,1027.30
2019-03-22T04:07:49.999Z,1027.35
2019-03-22T04:08:50.072Z,1027.37
2019-03-22T04:09:50.128Z,1027.41
2019-03-22T04:10:50.179Z,1027.41
2019-03-22T04:11:50.238Z,1027.42
2019-03-22T04:12:50.313Z,1027.48
2019-03-22T04:13:50.366Z,1027.46
2019-03-22T04:14:50.427Z,1027.48
2019-03-22T04:15:50.479Z,1027.49
2019-03-22T04:16:50.539Z,1027.51
2019-03-22T04:17:50.599Z,1027.45
2019-03-22T04:18:50.668Z,1027.43
2019-03-22T04:19:50.882Z,1027.44
2019-03-22T04:20:50.789Z,1027.44
2019-03-22T04:21:50.869Z,1027.42
2019-03-22T04:22:50.904Z,1027.45
2019-03-22T04:23:50.974Z,1027.45
2019-03-22T04:24:51.028Z,1027.42
2019-03-22T04:25:51.084Z,1027.43
2019-03-22T04:26:51.143Z,1027.49
2019-03-22T04:27:51.207Z,1027.50
2019-03-22T04:29:06.172Z,1027.47
2019-03-22T04:29:51.339Z,1027.48
2019-03-22T04:30:51.385Z,1027.46
2019-03-22T04:31:51.443Z,1027.42
2019-03-22T04:32:51.505Z,1027.41
2019-03-22T04:33:51.571Z,1027.39
2019-03-22T04:34:51.633Z,1027.42
2019-03-22T04:35:51.691Z,1027.41
2019-03-22T04:36:51.752Z,1027.40
2019-03-22T04:37:51.805Z,1027.41
2019-03-22T04:38:51.867Z,1027.42
2019-03-22T04:39:51.935Z,1027.43
2019-03-22T04:40:51.992Z,1027.41
2019-03-22T04:41:52.044Z,1027.37
2019-03-22T04:42:52.109Z,1027.35
2019-03-22T04:43:52.173Z,1027.39
2019-03-22T04:44:52.244Z,1027.39
2019-03-22T04:45:52.288Z,1027.38
2019-03-22T04:46:52.349Z,1027.38
2019-03-22T04:47:52.414Z,1027.35
2019-03-22T04:48:52.470Z,1027.33
2019-03-22T04:49:52.536Z,1027.34
2019-03-22T04:50:52.592Z,1027.33
2019-03-22T04:51:52.648Z,1027.37
2019-03-22T04:52:52.709Z,1027.37
2019-03-22T04:53:52.840Z,1027.38
2019-03-22T04:54:52.837Z,1027.40
2019-03-22T04:55:52.896Z,1027.39
2019-03-22T04:56:52.949Z,1027.36
2019-03-22T04:57:53.012Z,1027.35
2019-03-22T04:58:53.069Z,1027.32
2019-03-22T04:59:53.152Z,1027.36
2019-03-22T05:00:53.202Z,1027.31
2019-03-22T05:01:53.251Z,1027.28
2019-03-22T05:02:53.309Z,1027.23
2019-03-22T05:03:53.369Z,1027.27
2019-03-22T05:04:53.437Z,1027.24
2019-03-22T05:05:53.501Z,1027.23
2019-03-22T05:06:53.549Z,1027.23
2019-03-22T05:07:53.610Z,1027.22
2019-03-22T05:08:53.673Z,1027.24
2019-03-22T05:09:53.740Z,1027.27
2019-03-22T05:10:53.799Z,1027.28
2019-03-22T05:11:53.850Z,1027.25
2019-03-22T05:12:53.910Z,1027.32
2019-03-22T05:13:53.969Z,1027.31
2019-03-22T05:14:54.038Z,1027.32
2019-03-22T05:15:54.097Z,1027.30
2019-03-22T05:16:54.150Z,1027.30
2019-03-22T05:17:54.210Z,1027.34
2019-03-22T05:18:54.270Z,1027.33
2019-03-22T05:19:54.338Z,1027.33
2019-03-22T05:20:54.400Z,1027.33
2019-03-22T05:21:54.453Z,1027.32
2019-03-22T05:22:54.513Z,1027.29
2019-03-22T05:23:54.572Z,1027.28
2019-03-22T05:24:54.638Z,1027.27
2019-03-22T05:25:54.699Z,1027.30
2019-03-22T05:26:54.750Z,1027.26
2019-03-22T05:27:54.811Z,1027.26
2019-03-22T05:28:54.871Z,1027.29
2019-03-22T05:29:54.939Z,1027.26
2019-03-22T05:30:55.003Z,1027.26
2019-03-22T05:31:55.051Z,1027.24
2019-03-22T05:32:55.110Z,1027.25
2019-03-22T05:33:55.171Z,1027.22
2019-03-22T05:34:55.235Z,1027.22
2019-03-22T05:35:55.320Z,1027.20
2019-03-22T05:36:55.351Z,1027.21
2019-03-22T05:37:55.411Z,1027.20
2019-03-22T05:38:55.474Z,1027.21
2019-03-22T05:39:55.539Z,1027.20
2019-03-22T05:40:55.602Z,1027.25
2019-03-22T05:41:55.659Z,1027.24
2019-03-22T05:42:55.710Z,1027.23
2019-03-22T05:43:55.775Z,1027.27
2019-03-22T05:44:55.835Z,1027.26
2019-03-22T05:45:55.899Z,1027.27
2019-03-22T05:46:55.961Z,1027.31
2019-03-22T05:47:56.015Z,1027.30
2019-03-22T05:48:56.072Z,1027.32
2019-03-22T05:49:56.139Z,1027.29
2019-03-22T05:50:56.307Z,1027.34
2019-03-22T05:51:56.259Z,1027.36
2019-03-22T05:52:56.323Z,1027.41
2019-03-22T05:53:56.376Z,1027.39
2019-03-22T05:54:56.436Z,1027.41
2019-03-22T05:55:56.504Z,1027.43
2019-03-22T05:56:56.566Z,1027.47
2019-03-22T05:57:56.616Z,1027.45
2019-03-22T05:58:56.680Z,1027.45
2019-03-22T05:59:56.736Z,1027.47
2019-03-22T06:00:56.804Z,1027.42
2019-03-22T06:01:56.868Z,1027.48
2019-03-22T06:02:56.916Z,1027.49
2019-03-22T06:03:56.978Z,1027.43
2019-03-22T06:04:57.036Z,1027.41
2019-03-22T06:05:57.208Z,1027.47
2019-03-22T06:06:57.161Z,1027.48
2019-03-22T06:07:57.220Z,1027.45
2019-03-22T06:08:57.280Z,1027.46
2019-03-22T06:09:57.344Z,1027.46
2019-03-22T06:10:57.411Z,1027.45
2019-03-22T06:11:57.469Z,1027.44
2019-03-22T06:12:57.520Z,1027.43
2019-03-22T06:13:57.581Z,1027.42
2019-03-22T06:14:57.641Z,1027.44
2019-03-22T06:15:57.712Z,1027.42
2019-03-22T06:16:57.768Z,1027.43
2019-03-22T06:17:57.823Z,1027.43
2019-03-22T06:18:57.885Z,1027.44
2019-03-22T06:19:57.949Z,1027.46
2019-03-22T06:20:58.013Z,1027.44
2019-03-22T06:21:58.074Z,1027.47
2019-03-22T06:22:58.131Z,1027.50
2019-03-22T06:23:58.190Z,1027.50
2019-03-22T06:24:58.248Z,1027.52
2019-03-22T06:25:58.320Z,1027.55
2019-03-22T06:26:58.377Z,1027.58
2019-03-22T06:27:58.429Z,1027.59
2019-03-22T06:28:58.494Z,1027.62
2019-03-22T06:29:58.549Z,1027.63
2019-03-22T06:30:58.621Z,1027.62
2019-03-22T06:31:58.677Z,1027.65
2019-03-22T06:32:58.733Z,1027.69
2019-03-22T06:33:58.793Z,1027.70
2019-03-22T06:34:58.854Z,1027.73
2019-03-22T06:35:58.923Z,1027.74
2019-03-22T06:36:58.986Z,1027.72
2019-03-22T06:37:59.042Z,1027.74
2019-03-22T06:38:59.102Z,1027.74
2019-03-22T06:39:59.163Z,1027.76
2019-03-22T06:40:59.274Z,1027.78
2019-03-22T06:41:59.282Z,1027.78
2019-03-22T06:42:59.342Z,1027.75
2019-03-22T06:43:59.406Z,1027.75
2019-03-22T06:44:59.471Z,1027.80
2019-03-22T06:45:59.534Z,1027.80
2019-03-22T06:46:59.594Z,1027.79
2019-03-22T06:47:59.650Z,1027.80
2019-03-22T06:48:59.710Z,1027.78
2019-03-22T06:49:59.775Z,1027.79
2019-03-22T06:50:59.839Z,1027.75
2019-03-22T06:51:59.902Z,1027.77
2019-03-22T06:52:59.958Z,1027.81
2019-03-22T06:54:00.020Z,1027.82
2019-03-22T06:55:00.084Z,1027.83
2019-03-22T06:56:00.245Z,1027.85
2019-03-22T06:57:00.207Z,1027.82
2019-03-22T06:58:00.263Z,1027.87
2019-03-22T06:59:00.332Z,1027.93
2019-03-22T07:00:06.273Z,1027.93
2019-03-22T07:01:00.455Z,1027.99
2019-03-22T07:02:00.519Z,1028.01
2019-03-22T07:03:00.571Z,1028.01
2019-03-22T07:04:00.640Z,1028.01
2019-03-22T07:05:00.697Z,1028.02
2019-03-22T07:06:00.765Z,1028.06
2019-03-22T07:07:00.829Z,1028.02
2019-03-22T07:08:00.884Z,1028.05
2019-03-22T07:09:00.947Z,1028.01
2019-03-22T07:10:01.003Z,1028.06
2019-03-22T07:11:01.071Z,1028.09
2019-03-22T07:12:01.136Z,1028.12
2019-03-22T07:13:01.191Z,1028.14
2019-03-22T07:14:01.252Z,1028.20
2019-03-22T07:15:01.320Z,1028.18
2019-03-22T07:16:01.384Z,1028.23
2019-03-22T07:17:01.445Z,1028.22
2019-03-22T07:18:01.501Z,1028.23
2019-03-22T07:19:01.560Z,1028.20
2019-03-22T07:20:01.624Z,1028.24
2019-03-22T07:21:01.698Z,1028.22
2019-03-22T07:22:01.756Z,1028.21
2019-03-22T07:23:01.808Z,1028.22
2019-03-22T07:24:01.876Z,1028.19
2019-03-22T07:25:01.937Z,1028.17
2019-03-22T07:26:02.004Z,1028.15
2019-03-22T07:27:02.068Z,1028.11
2019-03-22T07:28:02.125Z,1028.11
2019-03-22T07:29:02.181Z,1028.10
2019-03-22T07:30:02.244Z,1028.07
2019-03-22T07:31:02.320Z,1028.07
2019-03-22T07:32:02.393Z,1028.08
2019-03-22T07:33:02.433Z,1028.11
2019-03-22T07:34:02.494Z,1028.11
2019-03-22T07:35:02.558Z,1028.12
2019-03-22T07:36:02.686Z,1028.11
2019-03-22T07:37:02.688Z,1028.11
2019-03-22T07:38:02.753Z,1028.10
2019-03-22T07:39:02.804Z,1028.17
2019-03-22T07:40:02.870Z,1028.20
2019-03-22T07:41:02.929Z,1028.32
2019-03-22T07:42:03.001Z,1028.69
2019-03-22T07:43:03.061Z,1028.83
2019-03-22T07:44:03.117Z,1028.96
2019-03-22T07:45:03.181Z,1028.80
2019-03-22T07:46:03.245Z,1028.88
2019-03-22T07:47:03.317Z,1028.92
2019-03-22T07:48:03.375Z,1028.80
2019-03-22T07:49:03.441Z,1028.84
2019-03-22T07:50:03.501Z,1028.91
2019-03-22T07:51:03.570Z,1028.95
2019-03-22T07:52:03.637Z,1029.12
2019-03-22T07:53:03.698Z,1029.17
2019-03-22T07:54:03.893Z,1029.25
2019-03-22T07:55:03.823Z,1029.24
2019-03-22T07:56:03.890Z,1029.36
2019-03-22T07:57:03.966Z,1029.36
2019-03-22T07:58:04.026Z,1029.26
2019-03-22T07:59:04.086Z,1028.92
2019-03-22T08:00:04.150Z,1029.12
2019-03-22T08:01:04.218Z,1029.17
2019-03-22T08:02:04.302Z,1029.01
2019-03-22T08:03:04.355Z,1029.00
2019-03-22T08:04:04.418Z,1029.16
2019-03-22T08:05:04.493Z,1029.04
2019-03-22T08:06:04.550Z,1028.95
2019-03-22T08:07:04.624Z,1028.93
2019-03-22T08:08:04.707Z,1028.98
2019-03-22T08:09:04.755Z,1029.05
2019-03-22T08:10:04.849Z,1029.10
2019-03-22T08:11:04.888Z,1029.09
2019-03-22T08:12:04.962Z,1028.96
2019-03-22T08:13:05.031Z,1028.91
2019-03-22T08:14:05.096Z,1028.88
2019-03-22T08:15:05.160Z,1028.93
2019-03-22T08:16:05.325Z,1028.81
2019-03-22T08:17:05.315Z,1028.71
2019-03-22T08:18:05.361Z,1028.77
2019-03-22T08:19:05.445Z,1028.67
2019-03-22T08:20:05.499Z,1028.71
2019-03-22T08:21:05.563Z,1028.74
2019-03-22T08:22:05.639Z,1028.77
2019-03-22T08:23:05.712Z,1028.76
2019-03-22T08:24:05.772Z,1028.71
2019-03-22T08:25:05.841Z,1028.78
2019-03-22T08:26:05.936Z,1028.66
2019-03-22T08:27:05.984Z,1028.56
2019-03-22T08:28:06.056Z,1028.58
2019-03-22T08:29:06.116Z,1028.59
2019-03-22T08:30:06.183Z,1028.64
2019-03-22T08:31:06.283Z,1028.63
2019-03-22T08:32:06.325Z,1028.60
2019-03-22T08:33:06.483Z,1028.59
2019-03-22T08:34:06.469Z,1028.58
2019-03-22T08:35:06.541Z,1028.62
2019-03-22T08:36:06.657Z,1028.57
2019-03-22T08:37:06.669Z,1028.58
2019-03-22T08:38:06.746Z,1028.55
2019-03-22T08:39:06.834Z,1028.61
2019-03-22T08:40:06.876Z,1028.64
2019-03-22T08:41:06.961Z,1028.56
2019-03-22T08:42:07.008Z,1028.53
2019-03-22T08:43:07.120Z,1028.54
2019-03-22T08:44:07.161Z,1028.57
2019-03-22T08:45:07.339Z,1028.54
2019-03-22T08:46:07.285Z,1028.51
2019-03-22T08:47:07.364Z,1028.46
2019-03-22T08:48:07.450Z,1028.41
2019-03-22T08:49:09.560Z,1028.50
2019-03-22T08:50:07.583Z,1028.55
2019-03-22T08:51:07.633Z,1028.53
2019-03-22T08:52:07.740Z,1028.57
2019-03-22T08:53:07.929Z,1028.57
2019-03-22T08:54:07.848Z,1028.57
2019-03-22T08:55:07.917Z,1028.55
2019-03-22T08:56:07.983Z,1028.56
2019-03-22T08:57:08.054Z,1028.56
2019-03-22T08:58:08.146Z,1028.57
2019-03-22T08:59:08.215Z,1028.56
2019-03-22T09:00:08.305Z,1028.52
2019-03-22T09:01:08.329Z,1028.53
2019-03-22T09:02:08.559Z,1028.55
2019-03-22T09:03:08.478Z,1028.44
2019-03-22T09:04:08.551Z,1028.43
2019-03-22T09:05:08.629Z,1028.42
2019-03-22T09:06:08.680Z,1028.29
2019-03-22T09:07:08.750Z,1028.26
2019-03-22T09:08:08.843Z,1028.32
2019-03-22T09:09:08.948Z,1028.27
2019-03-22T09:10:08.989Z,1028.34
2019-03-22T09:11:09.054Z,1028.27
2019-03-22T09:12:09.127Z,1028.29
2019-03-22T09:13:09.348Z,1028.30
2019-03-22T09:14:09.242Z,1028.25
2019-03-22T09:15:09.335Z,1028.30
2019-03-22T09:16:09.383Z,1028.25
2019-03-22T09:17:09.484Z,1028.24
2019-03-22T09:18:09.530Z,1028.21
2019-03-22T09:19:09.634Z,1028.24
2019-03-22T09:20:09.666Z,1028.17
2019-03-22T09:21:09.734Z,1028.17
2019-03-22T09:22:09.807Z,1028.17
2019-03-22T09:23:09.887Z,1028.18
2019-03-22T09:24:10.010Z,1028.13
2019-03-22T09:25:10.015Z,1028.17
2019-03-22T09:26:10.121Z,1028.16
2019-03-22T09:27:10.160Z,1028.12
2019-03-22T09:28:10.554Z,1028.04
2019-03-22T09:29:10.311Z,1028.07
2019-03-22T09:30:11.066Z,1028.05
2019-03-22T09:31:10.997Z,1028.04
2019-03-22T09:32:10.603Z,1028.05
2019-03-22T09:33:13.331Z,1028.02
2019-03-22T09:34:11.279Z,1027.99
2019-03-22T09:35:10.723Z,1027.99
2019-03-22T09:36:10.799Z,1027.98
2019-03-22T09:37:10.863Z,1027.90
2019-03-22T09:38:13.215Z,1027.92
2019-03-22T09:39:11.016Z,1027.94
2019-03-22T09:40:11.081Z,1027.93
2019-03-22T09:41:11.201Z,1027.92
2019-03-22T09:42:11.221Z,1027.95
2019-03-22T09:43:11.308Z,1027.88
2019-03-22T09:44:11.363Z,1027.90
2019-03-22T09:45:14.176Z,1027.89
2019-03-22T09:46:11.499Z,1027.87
2019-03-22T09:47:11.572Z,1027.83
2019-03-22T09:48:11.668Z,1027.82
2019-03-22T09:49:11.720Z,1027.84
2019-03-22T09:50:11.826Z,1027.86
2019-03-22T09:51:11.852Z,1027.82
2019-03-22T09:52:11.952Z,1027.82
2019-03-22T09:53:12.005Z,1027.81
2019-03-22T09:54:12.141Z,1027.81
2019-03-22T09:55:14.193Z,1027.77
2019-03-22T09:56:12.262Z,1027.75
2019-03-22T09:57:12.273Z,1027.69
2019-03-22T09:58:12.432Z,1027.73
2019-03-22T09:59:12.516Z,1027.71
2019-03-22T10:00:12.514Z,1027.67
2019-03-22T10:01:23.200Z,1027.69
2019-03-22T10:02:12.624Z,1027.66
2019-03-22T10:03:12.742Z,1027.62
2019-03-22T10:04:12.794Z,1027.61
2019-03-22T10:05:12.846Z,1027.58
2019-03-22T10:06:12.904Z,1027.54
2019-03-22T10:07:13.081Z,1027.56
2019-03-22T10:08:13.082Z,1027.55
2019-03-22T10:09:13.186Z,1027.54
2019-03-22T10:10:13.187Z,1027.51
2019-03-22T10:11:13.304Z,1027.48
2019-03-22T10:12:13.337Z,1027.47
2019-03-22T10:13:13.483Z,1027.44
2019-03-22T10:14:13.495Z,1027.36
2019-03-22T10:15:13.529Z,1027.39
2019-03-22T10:16:13.604Z,1027.36
2019-03-22T10:17:13.692Z,1027.38
2019-03-22T10:18:13.776Z,1027.35
2019-03-22T10:19:13.813Z,1027.35
2019-03-22T10:20:13.880Z,1027.31
2019-03-22T10:21:22.377Z,1027.31
2019-03-22T10:22:14.061Z,1027.29
2019-03-22T10:23:14.128Z,1027.26
2019-03-22T10:24:14.157Z,1027.24
2019-03-22T10:25:14.229Z,1027.22
2019-03-22T10:26:14.339Z,1027.23
2019-03-22T10:27:14.430Z,1027.19
2019-03-22T10:28:14.579Z,1027.18
2019-03-22T10:29:14.522Z,1027.16
2019-03-22T10:30:14.566Z,1027.11
2019-03-22T10:31:14.697Z,1027.10
2019-03-22T10:32:14.705Z,1027.12
2019-03-22T10:33:22.759Z,1027.09
2019-03-22T10:34:14.912Z,1027.10
2019-03-22T10:35:25.313Z,1027.09
2019-03-22T10:36:14.986Z,1027.09
2019-03-22T10:37:15.046Z,1027.04
2019-03-22T10:38:16.553Z,1027.04
2019-03-22T10:39:15.186Z,1027.04
2019-03-22T10:40:15.264Z,1027.04
2019-03-22T10:41:15.330Z,1026.97
2019-03-22T10:42:15.431Z,1027.01
2019-03-22T10:43:15.470Z,1027.01
2019-03-22T10:44:15.606Z,1026.99
2019-03-22T10:45:15.596Z,1027.00
2019-03-22T10:46:15.696Z,1026.94
2019-03-22T10:47:18.045Z,1026.90
2019-03-22T10:48:15.840Z,1026.95
2019-03-22T10:49:15.875Z,1026.91
2019-03-22T10:50:15.949Z,1026.90
2019-03-22T10:51:16.090Z,1026.90
2019-03-22T10:52:16.144Z,1026.89
2019-03-22T10:53:16.205Z,1026.88
2019-03-22T10:54:16.207Z,1026.87
2019-03-22T10:55:29.325Z,1026.84
2019-03-22T10:56:16.343Z,1026.85
2019-03-22T10:57:16.411Z,1026.82
2019-03-22T10:58:21.241Z,1026.81
2019-03-22T10:59:16.556Z,1026.81
2019-03-22T11:00:16.620Z,1026.80
2019-03-22T11:01:16.689Z,1026.78
2019-03-22T11:02:16.747Z,1026.75
2019-03-22T11:03:16.827Z,1026.78
2019-03-22T11:04:16.892Z,1026.73
2019-03-22T11:05:16.958Z,1026.72
2019-03-22T11:06:25.824Z,1026.76
2019-03-22T11:07:17.099Z,1026.74
2019-03-22T11:08:17.183Z,1026.73
2019-03-22T11:09:17.224Z,1026.70
2019-03-22T11:10:17.294Z,1026.68
2019-03-22T11:11:17.363Z,1026.68
2019-03-22T11:12:17.431Z,1026.67
2019-03-22T11:13:17.509Z,1026.62
2019-03-22T11:14:17.572Z,1026.66
2019-03-22T11:15:17.628Z,1026.68
2019-03-22T11:16:17.698Z,1026.62
2019-03-22T11:17:17.766Z,1026.67
2019-03-22T11:18:17.840Z,1026.63
2019-03-22T11:19:17.904Z,1026.61
2019-03-22T11:20:17.969Z,1026.57
2019-03-22T11:21:18.033Z,1026.57
2019-03-22T11:22:18.100Z,1026.59
2019-03-22T11:23:18.276Z,1026.64
2019-03-22T11:24:18.237Z,1026.56
2019-03-22T11:25:18.304Z,1026.54
2019-03-22T11:26:18.372Z,1026.53
2019-03-22T11:27:18.445Z,1026.51
2019-03-22T11:28:18.517Z,1026.46
2019-03-22T11:29:18.581Z,1026.47
2019-03-22T11:30:18.653Z,1026.49
2019-03-22T11:31:23.713Z,1026.45
2019-03-22T11:32:18.782Z,1026.40
2019-03-22T11:33:18.883Z,1026.39
2019-03-22T11:34:18.929Z,1026.42
2019-03-22T11:35:18.981Z,1026.38
2019-03-22T11:36:19.050Z,1026.35
2019-03-22T11:37:19.118Z,1026.35
2019-03-22T11:38:19.282Z,1026.34
2019-03-22T11:39:19.321Z,1026.31
2019-03-22T11:40:19.321Z,1026.32
2019-03-22T11:41:19.390Z,1026.27
2019-03-22T11:42:19.461Z,1026.20
2019-03-22T11:43:19.529Z,1026.19
2019-03-22T11:44:19.597Z,1026.18
2019-03-22T11:45:19.657Z,1026.14
2019-03-22T11:46:19.727Z,1026.15
2019-03-22T11:47:19.797Z,1026.15
2019-03-22T11:48:19.926Z,1026.13
2019-03-22T11:49:19.941Z,1026.10
2019-03-22T11:50:20.005Z,1026.10
2019-03-22T11:51:20.070Z,1026.04
2019-03-22T11:52:20.136Z,1026.10
2019-03-22T11:53:20.344Z,1026.05
2019-03-22T11:54:20.270Z,1026.00
2019-03-22T11:55:20.338Z,1026.06
2019-03-22T11:56:20.406Z,1026.02
2019-03-22T11:57:20.474Z,1025.99
2019-03-22T11:58:20.550Z,1025.95
2019-03-22T11:59:20.619Z,1025.93
2019-03-22T12:00:20.682Z,1025.94
2019-03-22T12:01:22.465Z,1025.92
2019-03-22T12:02:22.600Z,1025.93
2019-03-22T12:03:20.892Z,1025.88
2019-03-22T12:04:20.959Z,1025.90
2019-03-22T12:05:21.019Z,1025.90
2019-03-22T12:06:21.088Z,1025.87